createdAt,value
2024-05-09T00:00:46.258Z,83.13
2024-05-09T00:03:13.573Z,83.26
2024-05-09T00:05:43.967Z,83.12
2024-05-09T00:08:12.228Z,83.48
2024-05-09T00:10:44.410Z,83.28
2024-05-09T00:13:13.854Z,83.79
2024-05-09T00:15:40.983Z,83.37
2024-05-09T00:18:10.619Z,82.99
2024-05-09T00:20:40.554Z,82.83
2024-05-09T00:23:10.534Z,82.84
2024-05-09T00:25:38.024Z,83.11
2024-05-09T00:28:05.543Z,82.74
2024-05-09T00:30:36.842Z,82.87
2024-05-09T00:33:06.222Z,82.84
2024-05-09T00:35:34.471Z,83.20
2024-05-09T00:38:07.166Z,83.36
2024-05-09T00:40:41.025Z,83.50
2024-05-09T00:43:14.203Z,83.51
2024-05-09T00:45:42.198Z,83.48
2024-05-09T00:48:11.270Z,83.81
2024-05-09T00:50:47.665Z,83.81
2024-05-09T00:53:18.809Z,83.77
2024-05-09T00:55:48.547Z,84.12
2024-05-09T00:58:20.560Z,84.06
2024-05-09T01:00:51.339Z,84.31
2024-05-09T01:03:21.463Z,84.26
2024-05-09T01:05:51.464Z,84.33
2024-05-09T01:08:21.067Z,83.90
2024-05-09T01:10:50.799Z,83.51
2024-05-09T01:13:20.077Z,83.20
2024-05-09T01:15:50.029Z,83.06
2024-05-09T01:18:19.982Z,83.60
2024-05-09T01:20:47.206Z,83.33
2024-05-09T01:23:16.911Z,83.88
2024-05-09T01:25:44.539Z,83.86
2024-05-09T01:28:11.901Z,83.34
2024-05-09T01:30:41.028Z,83.85
2024-05-09T01:33:13.496Z,84.08
2024-05-09T01:35:43.580Z,84.30
2024-05-09T01:38:17.190Z,84.26
2024-05-09T01:40:48.084Z,83.85
2024-05-09T01:43:17.667Z,83.71
2024-05-09T01:45:47.042Z,83.74
2024-05-09T01:48:14.264Z,83.66
2024-05-09T01:50:44.367Z,84.02
2024-05-09T01:53:13.514Z,83.90
2024-05-09T01:55:41.218Z,83.72
2024-05-09T01:58:10.743Z,83.72
2024-05-09T02:00:42.309Z,84.00
2024-05-09T02:03:14.410Z,84.36
2024-05-09T02:05:47.737Z,84.17
2024-05-09T02:08:22.064Z,84.14
2024-05-09T02:10:52.351Z,84.33
2024-05-09T02:13:19.459Z,84.50
2024-05-09T02:15:52.269Z,84.78
2024-05-09T02:18:20.788Z,84.43
2024-05-09T02:20:50.370Z,84.03
2024-05-09T02:23:22.733Z,83.79
2024-05-09T02:25:52.197Z,83.94
2024-05-09T02:28:20.594Z,83.72
2024-05-09T02:30:49.707Z,84.18
2024-05-09T02:33:16.909Z,84.16
2024-05-09T02:35:46.133Z,84.28
2024-05-09T02:38:16.039Z,83.97
2024-05-09T02:40:43.206Z,84.31
2024-05-09T02:43:13.243Z,84.46
2024-05-09T02:45:42.849Z,84.45
2024-05-09T02:48:13.625Z,84.38
2024-05-09T02:50:43.864Z,84.66
2024-05-09T02:53:14.792Z,84.75
2024-05-09T02:55:47.689Z,84.64
2024-05-09T02:58:17.733Z,84.70
2024-05-09T03:00:49.633Z,84.71
2024-05-09T03:03:16.923Z,84.45
2024-05-09T03:05:48.125Z,84.30
2024-05-09T03:08:17.620Z,84.37
2024-05-09T03:10:46.895Z,84.21
2024-05-09T03:13:15.387Z,84.23
2024-05-09T03:15:46.088Z,84.32
2024-05-09T03:18:13.716Z,84.26
2024-05-09T03:20:46.633Z,84.09
2024-05-09T03:23:13.815Z,83.81
2024-05-09T03:25:43.956Z,83.82
2024-05-09T03:28:15.795Z,84.07
2024-05-09T03:30:45.075Z,84.04
2024-05-09T03:33:13.980Z,84.17
2024-05-09T03:35:49.824Z,84.16
2024-05-09T03:38:20.812Z,84.41
2024-05-09T03:40:53.227Z,84.37
2024-05-09T03:43:26.330Z,84.35
2024-05-09T03:45:55.759Z,84.25
2024-05-09T03:48:26.078Z,83.92
2024-05-09T03:50:55.395Z,84.03
2024-05-09T03:53:25.421Z,83.92
2024-05-09T03:55:57.200Z,84.24
2024-05-09T03:58:24.287Z,84.18
2024-05-09T04:00:51.361Z,84.41
2024-05-09T04:03:21.758Z,84.42
2024-05-09T04:05:51.109Z,84.45
2024-05-09T04:08:18.476Z,84.55
2024-05-09T04:10:48.036Z,84.62
2024-05-09T04:13:15.068Z,84.72
2024-05-09T04:15:45.795Z,84.79
2024-05-09T04:18:12.998Z,84.67
2024-05-09T04:20:42.392Z,84.93
2024-05-09T04:23:13.810Z,85.17
2024-05-09T04:25:44.010Z,85.36
2024-05-09T04:28:16.518Z,85.06
2024-05-09T04:30:43.746Z,85.05
2024-05-09T04:33:13.191Z,85.21
2024-05-09T04:35:44.863Z,85.12
2024-05-09T04:38:15.722Z,85.38
2024-05-09T04:40:43.279Z,85.37
2024-05-09T04:43:19.395Z,0.00
2024-05-09T04:45:50.848Z,85.68
2024-05-09T04:48:18.001Z,85.73
2024-05-09T04:50:45.689Z,85.88
2024-05-09T04:53:15.955Z,86.10
2024-05-09T04:55:50.441Z,86.36
2024-05-09T04:58:20.300Z,86.50
2024-05-09T05:00:51.300Z,86.34
2024-05-09T05:03:21.487Z,86.13
2024-05-09T05:05:51.119Z,85.82
2024-05-09T05:08:21.243Z,85.78
2024-05-09T05:10:53.965Z,85.76
2024-05-09T05:13:25.595Z,85.70
2024-05-09T05:15:56.773Z,85.84
2024-05-09T05:18:28.606Z,85.92
2024-05-09T05:20:56.835Z,86.11
2024-05-09T05:23:24.433Z,86.30
2024-05-09T05:25:56.610Z,86.81
2024-05-09T05:28:25.924Z,86.67
2024-05-09T05:30:57.888Z,87.17
2024-05-09T05:33:27.265Z,87.29
2024-05-09T05:35:54.508Z,87.03
2024-05-09T05:38:24.780Z,87.67
2024-05-09T05:40:57.343Z,87.72
2024-05-09T05:43:24.632Z,88.03
2024-05-09T05:45:54.060Z,88.04
2024-05-09T05:48:21.288Z,87.93
2024-05-09T05:50:50.622Z,87.74
2024-05-09T05:53:21.190Z,87.42
2024-05-09T05:55:50.464Z,87.26
2024-05-09T05:58:17.633Z,87.03
2024-05-09T06:00:48.067Z,86.95
2024-05-09T06:03:18.069Z,86.97
2024-05-09T06:05:48.905Z,86.56
2024-05-09T06:08:16.125Z,86.50
2024-05-09T06:10:43.251Z,86.58
2024-05-09T06:13:11.226Z,86.54
2024-05-09T06:15:43.960Z,86.02
2024-05-09T06:18:12.526Z,86.06
2024-05-09T06:20:45.792Z,85.76
2024-05-09T06:23:15.952Z,85.81
2024-05-09T06:25:43.844Z,85.69
2024-05-09T06:28:13.862Z,85.47
2024-05-09T06:30:42.631Z,85.05
2024-05-09T06:33:15.232Z,84.77
2024-05-09T06:35:49.872Z,84.14
2024-05-09T06:38:17.620Z,83.89
2024-05-09T06:40:44.981Z,83.21
2024-05-09T06:43:19.193Z,83.04
2024-05-09T06:45:56.694Z,82.61
2024-05-09T06:48:29.241Z,82.45
2024-05-09T06:51:01.398Z,81.62
2024-05-09T06:53:33.819Z,81.59
2024-05-09T06:56:08.789Z,81.53
2024-05-09T06:58:35.794Z,81.69
2024-05-09T07:01:05.856Z,80.97
2024-05-09T07:03:33.140Z,81.13
2024-05-09T07:06:05.195Z,81.66
2024-05-09T07:08:35.574Z,81.27
2024-05-09T07:11:07.599Z,81.03
2024-05-09T07:13:45.050Z,80.38
2024-05-09T07:16:13.039Z,80.78
2024-05-09T07:18:40.334Z,79.85
2024-05-09T07:21:08.475Z,79.40
2024-05-09T07:23:35.618Z,78.78
2024-05-09T07:26:02.749Z,78.77
2024-05-09T07:28:29.752Z,78.69
2024-05-09T07:30:56.730Z,78.32
2024-05-09T07:33:24.658Z,78.30
2024-05-09T07:35:53.263Z,78.58
2024-05-09T07:38:20.435Z,78.39
2024-05-09T07:40:47.572Z,77.90
2024-05-09T07:43:15.634Z,77.85
2024-05-09T07:45:51.152Z,77.68
2024-05-09T07:53:39.467Z,76.03
2024-05-09T07:56:10.433Z,75.30
2024-05-09T07:58:38.973Z,75.63
2024-05-09T08:01:06.239Z,74.44
2024-05-09T08:03:34.372Z,71.40
2024-05-09T08:06:01.841Z,70.76
2024-05-09T08:08:28.836Z,69.30
2024-05-09T08:10:55.889Z,71.22
2024-05-09T08:13:23.263Z,69.04
2024-05-09T08:15:51.598Z,71.12
2024-05-09T08:18:19.352Z,70.50
2024-05-09T08:20:48.264Z,69.22
2024-05-09T08:23:15.241Z,69.69
2024-05-09T08:25:42.299Z,69.31
2024-05-09T08:28:10.724Z,69.56
2024-05-09T08:30:38.479Z,68.13
2024-05-09T08:33:06.770Z,68.70
2024-05-09T08:35:35.137Z,68.35
2024-05-09T08:38:03.003Z,66.76
2024-05-09T08:40:35.419Z,65.77
2024-05-09T08:43:07.271Z,66.21
2024-05-09T08:45:35.480Z,66.12
2024-05-09T08:48:07.606Z,63.92
2024-05-09T08:50:39.154Z,64.69
2024-05-09T08:53:07.769Z,64.08
2024-05-09T08:55:39.407Z,63.48
2024-05-09T08:58:12.514Z,63.13
2024-05-09T09:00:41.957Z,63.62
2024-05-09T09:03:11.720Z,64.16
2024-05-09T09:05:40.723Z,60.41
2024-05-09T09:08:08.797Z,62.77
2024-05-09T09:10:39.561Z,61.55
2024-05-09T09:13:09.550Z,62.26
2024-05-09T09:15:46.751Z,62.70
2024-05-09T09:18:14.913Z,61.67
2024-05-09T09:20:42.378Z,60.44
2024-05-09T09:23:11.523Z,59.57
2024-05-09T09:25:41.391Z,58.57
2024-05-09T09:28:09.444Z,57.40
2024-05-09T09:30:42.840Z,57.94
2024-05-09T09:33:10.452Z,56.83
2024-05-09T09:35:39.886Z,57.69
2024-05-09T09:38:07.657Z,56.75
2024-05-09T09:40:39.210Z,54.83
2024-05-09T09:43:14.271Z,55.88
2024-05-09T09:45:43.397Z,55.07
2024-05-09T09:48:12.138Z,53.98
2024-05-09T09:50:41.489Z,53.88
2024-05-09T09:53:09.909Z,54.08
2024-05-09T09:55:37.890Z,54.56
2024-05-09T09:58:09.527Z,54.93
2024-05-09T10:00:39.297Z,55.21
2024-05-09T10:03:06.706Z,54.49
2024-05-09T10:05:34.622Z,54.50
2024-05-09T10:08:06.490Z,55.75
2024-05-09T10:10:35.232Z,55.41
2024-05-09T10:13:06.516Z,56.52
2024-05-09T10:15:45.113Z,54.79
2024-05-09T10:18:12.593Z,54.73
2024-05-09T10:20:43.523Z,54.38
2024-05-09T10:23:26.747Z,53.54
2024-05-09T10:26:00.801Z,52.87
2024-05-09T10:28:28.714Z,52.02
2024-05-09T10:31:07.566Z,51.09
2024-05-09T10:33:37.834Z,51.83
2024-05-09T10:36:13.425Z,50.39
2024-05-09T10:38:41.485Z,52.25
2024-05-09T10:41:08.795Z,51.75
2024-05-09T10:43:38.830Z,51.50
2024-05-09T10:46:06.656Z,51.10
2024-05-09T10:48:34.236Z,50.06
2024-05-09T10:51:01.605Z,49.91
2024-05-09T10:53:28.605Z,49.07
2024-05-09T10:55:59.634Z,49.47
2024-05-09T10:58:27.624Z,50.03
2024-05-09T11:00:55.797Z,49.93
2024-05-09T11:03:23.896Z,50.04
2024-05-09T11:05:55.377Z,48.61
2024-05-09T11:08:23.439Z,47.93
2024-05-09T11:10:52.302Z,48.51
2024-05-09T11:13:28.498Z,46.72
2024-05-09T11:15:55.718Z,46.99
2024-05-09T11:18:25.584Z,46.25
2024-05-09T11:20:54.411Z,45.55
2024-05-09T11:23:22.222Z,45.41
2024-05-09T11:25:49.863Z,45.39
2024-05-09T11:28:20.254Z,46.33
2024-05-09T11:30:48.735Z,45.81
2024-05-09T11:33:17.495Z,46.00
2024-05-09T11:35:45.831Z,45.64
2024-05-09T11:38:13.052Z,45.50
2024-05-09T11:40:40.209Z,45.94
2024-05-09T11:43:07.343Z,47.07
2024-05-09T11:45:34.666Z,48.23
2024-05-09T11:48:01.895Z,48.32
2024-05-09T11:50:33.159Z,47.62
2024-05-09T11:53:02.930Z,48.81
2024-05-09T11:55:30.591Z,48.59
2024-05-09T11:57:57.670Z,48.69
2024-05-09T12:00:33.020Z,49.47
2024-05-09T12:03:04.934Z,49.54
2024-05-09T12:05:33.149Z,49.49
2024-05-09T12:08:00.901Z,47.50
2024-05-09T12:10:33.278Z,47.35
2024-05-09T12:13:04.730Z,47.35
2024-05-09T12:15:35.856Z,47.14
2024-05-09T12:18:04.251Z,46.72
2024-05-09T12:20:37.046Z,46.45
2024-05-09T12:23:08.289Z,47.10
2024-05-09T12:25:36.743Z,47.27
2024-05-09T12:28:03.985Z,47.26
2024-05-09T12:30:37.410Z,47.31
2024-05-09T12:33:11.829Z,47.47
2024-05-09T12:35:40.010Z,47.66
2024-05-09T12:38:07.037Z,47.05
2024-05-09T12:40:37.302Z,47.57
2024-05-09T12:43:08.478Z,47.46
2024-05-09T12:45:37.205Z,48.16
2024-05-09T12:48:07.431Z,48.22
2024-05-09T12:50:35.195Z,47.27
2024-05-09T12:53:03.734Z,47.77
2024-05-09T12:55:40.387Z,47.68
2024-05-09T12:58:18.478Z,47.81
2024-05-09T13:00:46.581Z,46.81
2024-05-09T13:03:14.811Z,46.81
2024-05-09T13:05:44.615Z,46.55
2024-05-09T13:08:12.811Z,47.60
2024-05-09T13:10:42.175Z,46.93
2024-05-09T13:13:12.019Z,46.67
2024-05-09T13:15:39.452Z,46.31
2024-05-09T13:18:07.201Z,46.55
2024-05-09T13:20:36.303Z,46.33
2024-05-09T13:23:05.740Z,45.85
2024-05-09T13:25:36.000Z,45.83
2024-05-09T13:28:03.934Z,45.94
2024-05-09T13:30:39.232Z,46.27
2024-05-09T13:33:09.650Z,46.51
2024-05-09T13:35:37.295Z,46.78
2024-05-09T13:38:05.075Z,46.95
2024-05-09T13:40:35.097Z,47.01
2024-05-09T13:43:04.335Z,47.49
2024-05-09T13:45:32.148Z,48.40
2024-05-09T13:47:59.488Z,48.12
2024-05-09T13:50:33.800Z,48.35
2024-05-09T13:53:04.582Z,48.74
2024-05-09T13:55:31.703Z,49.13
2024-05-09T13:57:58.941Z,49.85
2024-05-09T14:00:38.181Z,50.22
2024-05-09T14:03:12.293Z,50.68
2024-05-09T14:05:39.746Z,50.79
2024-05-09T14:08:07.130Z,50.58
2024-05-09T14:10:35.422Z,50.41
2024-05-09T14:13:02.566Z,51.11
2024-05-09T14:15:30.061Z,50.49
2024-05-09T14:17:57.335Z,50.81
2024-05-09T14:20:30.899Z,50.90
2024-05-09T14:23:00.832Z,50.91
2024-05-09T14:25:30.358Z,50.96
2024-05-09T14:27:57.671Z,50.12
2024-05-09T14:30:31.224Z,49.66
2024-05-09T14:33:04.147Z,49.17
2024-05-09T14:35:31.369Z,49.63
2024-05-09T14:37:58.685Z,49.38
2024-05-09T14:40:36.359Z,49.64
2024-05-09T14:43:08.760Z,49.97
2024-05-09T14:45:36.181Z,49.57
2024-05-09T14:48:04.084Z,49.84
2024-05-09T14:50:36.728Z,49.00
2024-05-09T14:53:07.430Z,47.20
2024-05-09T14:55:37.058Z,44.30
2024-05-09T14:58:07.029Z,39.85
2024-05-09T15:00:40.385Z,35.64
2024-05-09T15:03:10.350Z,34.37
2024-05-09T15:05:37.694Z,34.57
2024-05-09T15:08:07.814Z,35.50
2024-05-09T15:10:36.611Z,36.36
2024-05-09T15:13:05.027Z,36.77
2024-05-09T15:15:34.462Z,38.02
2024-05-09T15:18:01.890Z,37.25
2024-05-09T15:20:34.628Z,33.91
2024-05-09T15:23:04.839Z,34.37
2024-05-09T15:25:35.496Z,37.75
2024-05-09T15:28:03.599Z,39.08
2024-05-09T15:30:33.152Z,34.35
2024-05-09T15:33:05.519Z,33.25
2024-05-09T15:35:33.670Z,31.86
2024-05-09T15:38:03.054Z,32.17
2024-05-09T15:40:37.684Z,33.24
2024-05-09T15:43:08.688Z,34.66
2024-05-09T15:45:37.042Z,30.52
2024-05-09T15:48:05.347Z,31.34
2024-05-09T15:50:38.064Z,27.37
2024-05-09T15:53:09.098Z,28.84
2024-05-09T15:55:36.969Z,27.87
2024-05-09T15:58:04.889Z,35.19
2024-05-09T16:00:38.092Z,35.11
2024-05-09T16:03:09.221Z,34.67
2024-05-09T16:05:36.930Z,38.62
2024-05-09T16:08:04.806Z,40.66
2024-05-09T16:10:33.634Z,39.05
2024-05-09T16:13:02.654Z,39.63
2024-05-09T16:15:30.637Z,41.02
2024-05-09T16:17:57.928Z,42.43
2024-05-09T16:20:34.592Z,42.28
2024-05-09T16:23:07.278Z,40.20
2024-05-09T16:25:34.367Z,33.72
2024-05-09T16:28:01.632Z,32.98
2024-05-09T16:30:34.554Z,33.26
2024-05-09T16:33:04.285Z,33.29
2024-05-09T16:35:32.104Z,35.22
2024-05-09T16:38:01.382Z,35.53
2024-05-09T16:40:36.311Z,34.52
2024-05-09T16:43:07.674Z,33.52
2024-05-09T16:45:35.796Z,33.35
2024-05-09T16:48:03.134Z,32.95
2024-05-09T16:50:33.860Z,33.55
2024-05-09T16:53:02.805Z,33.50
2024-05-09T16:55:29.976Z,33.05
2024-05-09T16:57:58.065Z,37.91
2024-05-09T17:00:35.823Z,40.43
2024-05-09T17:03:09.440Z,40.76
2024-05-09T17:05:37.361Z,42.17
2024-05-09T17:08:05.042Z,42.13
2024-05-09T17:10:34.269Z,38.01
2024-05-09T17:13:04.275Z,36.76
2024-05-09T17:15:33.044Z,35.83
2024-05-09T17:18:01.243Z,35.72
2024-05-09T17:20:33.279Z,35.63
2024-05-09T17:23:04.423Z,36.25
2024-05-09T17:25:32.167Z,35.61
2024-05-09T17:28:05.880Z,35.63
2024-05-09T17:30:36.775Z,36.37
2024-05-09T17:33:07.235Z,35.75
2024-05-09T17:35:34.923Z,37.52
2024-05-09T17:38:02.028Z,39.21
2024-05-09T17:40:33.736Z,41.01
2024-05-09T17:43:05.000Z,41.82
2024-05-09T17:45:33.079Z,45.48
2024-05-09T17:48:00.786Z,48.17
2024-05-09T17:50:34.758Z,50.69
2024-05-09T17:53:04.332Z,51.72
2024-05-09T17:55:31.547Z,53.93
2024-05-09T17:57:58.772Z,54.18
2024-05-09T18:00:36.407Z,53.83
2024-05-09T18:03:08.039Z,54.24
2024-05-09T18:05:36.965Z,54.67
2024-05-09T18:08:05.361Z,56.38
2024-05-09T18:10:36.873Z,56.83
2024-05-09T18:13:09.732Z,56.78
2024-05-09T18:15:37.393Z,57.11
2024-05-09T18:18:05.450Z,57.53
2024-05-09T18:20:41.420Z,58.87
2024-05-09T18:23:13.244Z,59.32
2024-05-09T18:25:40.881Z,59.39
2024-05-09T18:28:08.079Z,59.65
2024-05-09T18:30:36.819Z,60.43
2024-05-09T18:33:05.870Z,60.48
2024-05-09T18:35:34.311Z,60.74
2024-05-09T18:38:01.317Z,61.30
2024-05-09T18:40:34.130Z,61.40
2024-05-09T18:43:05.836Z,61.30
2024-05-09T18:45:34.488Z,61.48
2024-05-09T18:48:01.745Z,61.28
2024-05-09T18:50:35.342Z,61.49
2024-05-09T18:53:06.005Z,61.59
2024-05-09T18:55:33.191Z,62.51
2024-05-09T18:58:00.813Z,62.06
2024-05-09T19:00:34.510Z,61.90
2024-05-09T19:03:09.110Z,62.31
2024-05-09T19:05:39.427Z,62.42
2024-05-09T19:08:07.431Z,62.52
2024-05-09T19:10:36.001Z,62.88
2024-05-09T19:13:08.245Z,63.04
2024-05-09T19:15:39.251Z,62.83
2024-05-09T19:18:07.258Z,63.35
2024-05-09T19:20:36.330Z,63.42
2024-05-09T19:23:06.430Z,63.76
2024-05-09T19:25:34.423Z,63.72
2024-05-09T19:28:01.771Z,64.02
2024-05-09T19:30:37.615Z,64.29
2024-05-09T19:33:08.903Z,64.77
2024-05-09T19:35:36.367Z,64.75
2024-05-09T19:38:03.766Z,64.65
2024-05-09T19:40:33.060Z,65.51
2024-05-09T19:43:03.094Z,65.48
2024-05-09T19:45:32.143Z,65.84
2024-05-09T19:47:59.400Z,65.85
2024-05-09T19:50:32.902Z,66.54
2024-05-09T19:53:08.173Z,66.72
2024-05-09T19:55:36.373Z,66.52
2024-05-09T19:58:05.554Z,67.27
2024-05-09T20:00:36.364Z,68.15
2024-05-09T20:03:05.658Z,67.44
2024-05-09T20:05:33.457Z,67.82
2024-05-09T20:08:00.619Z,67.49
2024-05-09T20:10:32.402Z,68.40
2024-05-09T20:13:01.772Z,68.18
2024-05-09T20:15:29.078Z,68.63
2024-05-09T20:17:56.455Z,69.32
2024-05-09T20:20:32.682Z,69.07
2024-05-09T20:23:05.979Z,70.07
2024-05-09T20:25:33.081Z,69.26
2024-05-09T20:28:00.300Z,69.43
2024-05-09T20:30:32.159Z,69.44
2024-05-09T20:33:03.605Z,70.46
2024-05-09T20:35:32.613Z,70.11
2024-05-09T20:38:00.888Z,70.78
2024-05-09T20:40:32.830Z,71.43
2024-05-09T20:43:03.514Z,71.28
2024-05-09T20:45:30.564Z,71.36
2024-05-09T20:47:57.974Z,71.36
2024-05-09T20:50:35.638Z,71.16
2024-05-09T20:53:08.614Z,72.32
2024-05-09T20:55:35.943Z,72.06
2024-05-09T20:58:03.158Z,72.45
2024-05-09T21:00:38.823Z,72.85
2024-05-09T21:03:10.370Z,72.47
2024-05-09T21:05:38.018Z,73.83
2024-05-09T21:08:05.264Z,73.51
2024-05-09T21:10:33.855Z,73.94
2024-05-09T21:13:03.093Z,74.07
2024-05-09T21:15:30.948Z,73.92
2024-05-09T21:17:58.500Z,74.64
2024-05-09T21:20:31.126Z,75.07
2024-05-09T21:22:59.960Z,75.12
2024-05-09T21:25:27.200Z,76.29
2024-05-09T21:27:54.524Z,76.23
2024-05-09T21:30:31.944Z,76.29
2024-05-09T21:33:07.875Z,76.20
2024-05-09T21:35:35.215Z,76.30
2024-05-09T21:38:02.196Z,76.27
2024-05-09T21:40:36.447Z,76.10
2024-05-09T21:43:07.905Z,75.88
2024-05-09T21:45:35.704Z,76.39
2024-05-09T21:48:04.101Z,76.49
2024-05-09T21:50:37.198Z,76.78
2024-05-09T21:53:07.837Z,76.80
2024-05-09T21:55:35.074Z,77.25
2024-05-09T21:58:02.763Z,76.95
2024-05-09T22:00:36.964Z,76.75
2024-05-09T22:03:07.559Z,76.92
2024-05-09T22:05:36.517Z,76.46
2024-05-09T22:08:03.700Z,77.02
2024-05-09T22:10:34.786Z,76.93
2024-05-09T22:13:04.457Z,76.73
2024-05-09T22:15:35.256Z,76.91
2024-05-09T22:18:02.554Z,76.50
2024-05-09T22:20:36.556Z,76.66
2024-05-09T22:23:05.933Z,76.94
2024-05-09T22:25:33.513Z,76.73
2024-05-09T22:28:01.303Z,77.06
2024-05-09T22:30:35.774Z,77.54
2024-05-09T22:33:10.341Z,77.27
2024-05-09T22:35:39.464Z,77.45
2024-05-09T22:38:06.709Z,77.26
2024-05-09T22:40:43.337Z,76.98
2024-05-09T22:43:19.537Z,77.43
2024-05-09T22:45:47.742Z,77.33
2024-05-09T22:48:15.069Z,77.04
2024-05-09T22:50:42.278Z,77.05
2024-05-09T22:53:09.301Z,77.62
2024-05-09T22:55:36.365Z,77.77
2024-05-09T22:58:03.496Z,77.85
2024-05-09T23:00:32.395Z,77.71
2024-05-09T23:03:00.615Z,78.02
2024-05-09T23:05:28.179Z,78.32
2024-05-09T23:07:55.318Z,78.06
2024-05-09T23:10:30.847Z,78.28
2024-05-09T23:13:02.627Z,78.76
2024-05-09T23:15:30.099Z,78.77
2024-05-09T23:17:58.109Z,78.86
2024-05-09T23:20:35.560Z,78.69
2024-05-09T23:23:06.507Z,78.41
2024-05-09T23:25:36.744Z,78.77
2024-05-09T23:28:04.418Z,78.57
2024-05-09T23:30:37.596Z,78.32
2024-05-09T23:33:08.242Z,78.55
2024-05-09T23:35:36.786Z,78.01
2024-05-09T23:38:04.005Z,78.85
2024-05-09T23:40:38.400Z,78.62
2024-05-09T23:43:09.053Z,78.88
2024-05-09T23:45:36.616Z,79.16
2024-05-09T23:48:04.042Z,78.45
2024-05-09T23:50:35.834Z,78.87
2024-05-09T23:53:06.704Z,79.08
2024-05-09T23:55:34.957Z,78.87
2024-05-09T23:58:02.053Z,79.22
